Weather History for PAKK - May, 2013

Change the Weather History Date:

Wednesday, May 15, 2013

  Actual Average Record
Temperature  
Mean Temperature 22 °F -  
Max Temperature 24 °F 42 °F 53 °F (2015)
Min Temperature 19 °F 29 °F 19 °F (2013)
Degree Days  
Heating Degree Days 44    
Moisture  
Dew Point 18 °F    
Average Humidity 82    
Maximum Humidity 93    
Minimum Humidity 80    
Precipitation  
Precipitation 0.00 in - - ()
Sea Level Pressure  
Sea Level Pressure 29.58 in    
Wind  
Wind Speed 9 mph (South)    
Max Wind Speed 16 mph    
Max Gust Speed 22 mph    
Visibility 9 miles    
Events      
Averages and records for this station are not official NWS values.
T = Trace of Precipitation, MM = Missing Value Source: NWS Daily Summary

Daily Weather History Graph

Daily Weather History Graph

Search for Another Location

Airport or City:

Trip Planner

Search our weather history database for the weather conditions in past years. The results will help you decide how hot, cold, wet, or windy it might be!

Date:

Astronomy

May. 15, 2013 Rise Set
Actual Time 5:18 AM AKDT 12:05 AM AKDT
Civil Twilight 3:02 AM AKDT 2:08 AM AKDT
Nautical Twilight Sun does not rise Sun does not rise
Astronomical Twilight Sun does not rise Sun does not rise
Moon 10:40 AM AKDT (5/15) 3:27 AM AKDT (5/15)
Length of Visible Light 23h 05m
Length of Day
18h 46m
Waxing Crescent, 28% of the Moon is Illuminated
May 15
Waxing Crescent
May 17
First Quarter
May 24
Full
May 31
Last Quarter
Jun 8
New

Hourly Weather History & Observations

Time (AKDT) Temp. Windchill Dew Point Humidity Pressure Visibility Wind Dir Wind Speed Gust Speed Precip Events Conditions
12:16 AM 21.2 °F 12.6 °F 15.8 °F 80% 29.66 in 10.0 mi SSE 6.9 mph - N/A   Overcast
12:36 AM 21.2 °F 11.7 °F 15.8 °F 80% 29.66 in 10.0 mi South 8.1 mph - N/A   Overcast
12:56 AM 21.2 °F 12.6 °F 15.8 °F 80% 29.66 in 10.0 mi South 6.9 mph - N/A   Overcast
1:16 AM 21.2 °F 13.6 °F 15.8 °F 80% 29.65 in 10.0 mi South 5.8 mph - N/A   Overcast
1:36 AM 19.4 °F 12.8 °F 15.8 °F 86% 29.65 in 10.0 mi South 4.6 mph - N/A   Overcast
1:56 AM 19.4 °F 12.8 °F 15.8 °F 86% 29.65 in 10.0 mi SW 4.6 mph - N/A   Overcast
2:16 AM 19.4 °F 11.5 °F 15.8 °F 86% 29.65 in 10.0 mi SSW 5.8 mph - N/A   Overcast
2:36 AM 19.4 °F 12.8 °F 15.8 °F 86% 29.64 in 10.0 mi SSW 4.6 mph - N/A   Overcast
2:56 AM 19.4 °F 12.8 °F 15.8 °F 86% 29.64 in 10.0 mi SSW 4.6 mph - N/A   Overcast
3:16 AM 21.2 °F 16.4 °F 17.6 °F 86% 29.64 in 10.0 mi SSW 3.5 mph - N/A   Overcast
3:36 AM 19.4 °F - 17.6 °F 93% 29.63 in 10.0 mi Calm Calm - N/A   Overcast
3:56 AM 21.2 °F 13.6 °F 17.6 °F 86% 29.63 in 10.0 mi South 5.8 mph - N/A   Overcast
4:16 AM 21.2 °F 11.7 °F 15.8 °F 80% 29.62 in 10.0 mi South 8.1 mph - N/A   Overcast
4:36 AM 21.2 °F 13.6 °F 17.6 °F 86% 29.62 in 10.0 mi South 5.8 mph - N/A   Overcast
4:56 AM 21.2 °F 12.6 °F 17.6 °F 86% 29.62 in 10.0 mi South 6.9 mph - N/A   Overcast
5:16 AM 21.2 °F 12.6 °F 17.6 °F 86% 29.62 in 10.0 mi South 6.9 mph - N/A   Overcast
5:36 AM 21.2 °F 12.6 °F 17.6 °F 86% 29.61 in 10.0 mi SSW 6.9 mph - N/A   Overcast
5:56 AM 21.2 °F 11.7 °F 15.8 °F 80% 29.61 in 10.0 mi SSW 8.1 mph - N/A   Overcast
6:16 AM 21.2 °F 11.7 °F 17.6 °F 86% 29.61 in 10.0 mi South 8.1 mph - N/A   Overcast
6:36 AM 21.2 °F 11.7 °F 17.6 °F 86% 29.60 in 10.0 mi SSW 8.1 mph - N/A   Overcast
7:16 AM 21.2 °F 12.6 °F 17.6 °F 86% 29.60 in 10.0 mi SSW 6.9 mph - N/A   Overcast
7:36 AM 21.2 °F 13.6 °F 15.8 °F 80% 29.60 in 10.0 mi SSW 5.8 mph - N/A   Overcast
7:56 AM 21.2 °F 13.6 °F 15.8 °F 80% 29.60 in 10.0 mi SSW 5.8 mph - N/A   Overcast
8:16 AM 21.2 °F 14.9 °F 15.8 °F 80% 29.60 in 10.0 mi SSW 4.6 mph - N/A   Overcast
8:36 AM 21.2 °F 12.6 °F 15.8 °F 80% 29.60 in 10.0 mi SSW 6.9 mph - N/A   Overcast
8:56 AM 21.2 °F 12.6 °F 15.8 °F 80% 29.60 in 10.0 mi SSW 6.9 mph - N/A   Overcast
9:16 AM 21.2 °F 10.9 °F 15.8 °F 80% 29.60 in 10.0 mi South 9.2 mph - N/A   Overcast
9:36 AM 21.2 °F 10.1 °F 15.8 °F 80% 29.60 in 10.0 mi SSW 10.4 mph - N/A   Overcast
9:56 AM 21.2 °F 10.9 °F 15.8 °F 80% 29.59 in 10.0 mi South 9.2 mph - N/A   Overcast
10:16 AM 21.2 °F 10.1 °F 15.8 °F 80% 29.59 in 10.0 mi South 10.4 mph - N/A   Overcast
10:36 AM 21.2 °F 9.5 °F 15.8 °F 80% 29.59 in 10.0 mi South 11.5 mph - N/A   Overcast
10:56 AM 21.2 °F 8.9 °F 17.6 °F 86% 29.59 in 10.0 mi South 12.7 mph - N/A   Overcast
11:16 AM 21.2 °F 9.5 °F 17.6 °F 86% 29.59 in 10.0 mi South 11.5 mph - N/A   Overcast
11:36 AM 21.2 °F 8.9 °F 17.6 °F 86% 29.59 in 10.0 mi South 12.7 mph - N/A   Overcast
11:56 AM 23.0 °F 12.4 °F 17.6 °F 80% 29.59 in 5.0 mi South 10.4 mph - N/A   Overcast
12:16 PM 23.0 °F 11.1 °F 17.6 °F 80% 29.59 in 3.0 mi South 12.7 mph - N/A   Overcast
12:36 PM 23.0 °F 11.1 °F 19.4 °F 86% 29.59 in 1.2 mi South 12.7 mph - N/A   Overcast
12:56 PM 24.8 °F 13.4 °F 19.4 °F 80% 29.59 in 3.0 mi South 12.7 mph - N/A   Overcast
1:16 PM 23.0 °F 10.1 °F 17.6 °F 80% 29.59 in 3.0 mi South 15.0 mph 19.6 mph N/A   Overcast
1:36 PM 23.0 °F 10.1 °F 19.4 °F 86% 29.59 in 2.0 mi South 15.0 mph - N/A   Overcast
1:56 PM 24.8 °F 12.9 °F 19.4 °F 80% 29.59 in 3.0 mi South 13.8 mph 19.6 mph N/A   Overcast
2:16 PM 24.8 °F 12.9 °F 19.4 °F 80% 29.59 in 10.0 mi South 13.8 mph - N/A   Overcast
2:36 PM 24.8 °F 12.9 °F 19.4 °F 80% 29.59 in 5.0 mi South 13.8 mph - N/A   Overcast
2:56 PM 24.8 °F 11.9 °F 19.4 °F 80% 29.59 in 4.0 mi South 16.1 mph 21.9 mph N/A   Overcast
3:16 PM 24.8 °F 11.9 °F 19.4 °F 80% 29.59 in 2.5 mi SSW 16.1 mph 20.7 mph N/A   Overcast
3:36 PM 24.8 °F 13.4 °F 19.4 °F 80% 29.59 in 4.0 mi South 12.7 mph 19.6 mph N/A   Overcast
3:56 PM 24.8 °F 13.4 °F 19.4 °F 80% 29.59 in 5.0 mi South 12.7 mph 19.6 mph N/A   Overcast
4:16 PM 24.8 °F 13.4 °F 19.4 °F 80% 29.59 in 3.0 mi South 12.7 mph - N/A   Overcast
4:36 PM 24.8 °F 12.9 °F 19.4 °F 80% 29.58 in 10.0 mi South 13.8 mph 18.4 mph N/A   Overcast
4:56 PM 24.8 °F 12.4 °F 19.4 °F 80% 29.58 in 10.0 mi South 15.0 mph - N/A   Overcast
5:16 PM 24.8 °F 11.9 °F 19.4 °F 80% 29.58 in 10.0 mi South 16.1 mph 19.6 mph N/A   Overcast
5:36 PM 24.8 °F 13.4 °F 19.4 °F 80% 29.57 in 10.0 mi South 12.7 mph 18.4 mph N/A   Overcast
5:56 PM 24.8 °F 12.9 °F 19.4 °F 80% 29.57 in 10.0 mi South 13.8 mph 19.6 mph N/A   Overcast
6:16 PM 24.8 °F 12.4 °F 19.4 °F 80% 29.56 in 10.0 mi South 15.0 mph - N/A   Overcast
6:36 PM 24.8 °F 12.4 °F 19.4 °F 80% 29.56 in 10.0 mi South 15.0 mph 18.4 mph N/A   Overcast
6:56 PM 24.8 °F 12.4 °F 19.4 °F 80% 29.55 in 10.0 mi South 15.0 mph - N/A   Overcast
7:16 PM 24.8 °F 14.0 °F 19.4 °F 80% 29.55 in 10.0 mi South 11.5 mph - N/A   Overcast
7:36 PM 24.8 °F 13.4 °F 19.4 °F 80% 29.54 in 10.0 mi South 12.7 mph - N/A   Overcast
7:56 PM 24.8 °F 12.4 °F 19.4 °F 80% 29.53 in 10.0 mi South 15.0 mph 19.6 mph N/A   Overcast
8:16 PM 24.8 °F 13.4 °F 19.4 °F 80% 29.53 in 10.0 mi South 12.7 mph - N/A   Overcast
8:36 PM 24.8 °F 13.4 °F 19.4 °F 80% 29.52 in 10.0 mi South 12.7 mph 19.6 mph N/A   Overcast
8:56 PM 24.8 °F 13.4 °F 19.4 °F 80% 29.52 in 10.0 mi South 12.7 mph 16.1 mph N/A   Overcast
9:16 PM 24.8 °F 14.6 °F 21.2 °F 86% 29.51 in 10.0 mi South 10.4 mph - N/A   Overcast
9:36 PM 24.8 °F 13.4 °F 19.4 °F 80% 29.51 in 10.0 mi South 12.7 mph - N/A   Overcast
9:56 PM 24.8 °F 13.4 °F 19.4 °F 80% 29.50 in 10.0 mi South 12.7 mph - N/A   Overcast
10:16 PM 24.8 °F 13.4 °F 19.4 °F 80% 29.49 in 10.0 mi South 12.7 mph - N/A   Overcast
10:36 PM 24.8 °F 13.4 °F 19.4 °F 80% 29.49 in 10.0 mi South 12.7 mph 16.1 mph N/A   Overcast
10:56 PM 24.8 °F 13.4 °F 19.4 °F 80% 29.48 in 10.0 mi South 12.7 mph - N/A   Overcast
11:16 PM 24.8 °F 13.4 °F 19.4 °F 80% 29.48 in 10.0 mi South 12.7 mph 17.3 mph N/A   Overcast
11:36 PM 24.8 °F 13.4 °F 19.4 °F 80% 29.47 in 10.0 mi South 12.7 mph - N/A   Overcast
11:56 PM 24.8 °F 13.4 °F 21.2 °F 86% 29.46 in 10.0 mi South 12.7 mph - N/A   Overcast